createdAt,value
2018-08-06T00:01:00.831Z,91.90
2018-08-06T00:03:29.205Z,92.10
2018-08-06T00:05:57.729Z,92.30
2018-08-06T00:08:26.201Z,92.80
2018-08-06T00:10:54.652Z,92.60
2018-08-06T00:13:23.076Z,92.90
2018-08-06T00:15:51.439Z,93.00
2018-08-06T00:18:19.947Z,93.20
2018-08-06T00:20:48.267Z,93.30
2018-08-06T00:23:16.569Z,93.50
2018-08-06T00:25:45.676Z,93.60
2018-08-06T00:28:14.138Z,93.80
2018-08-06T00:30:42.614Z,93.90
2018-08-06T00:33:11.043Z,93.90
2018-08-06T00:35:39.480Z,93.80
2018-08-06T00:38:07.882Z,94.00
2018-08-06T00:40:36.300Z,94.10
2018-08-06T00:43:04.638Z,94.20
2018-08-06T00:45:33.089Z,94.20
2018-08-06T00:48:01.452Z,94.40
2018-08-06T00:50:29.872Z,94.50
2018-08-06T00:52:58.312Z,94.30
2018-08-06T00:55:26.669Z,94.50
2018-08-06T00:57:55.065Z,94.80
2018-08-06T01:00:23.361Z,95.00
2018-08-06T01:02:51.652Z,95.00
2018-08-06T01:05:20.071Z,95.20
2018-08-06T01:07:48.503Z,95.40
2018-08-06T01:10:18.020Z,95.60
2018-08-06T01:12:46.496Z,95.80
2018-08-06T01:15:17.282Z,95.90
2018-08-06T01:17:45.749Z,95.90
2018-08-06T01:20:14.674Z,95.90
2018-08-06T01:22:43.996Z,96.10
2018-08-06T01:25:12.950Z,96.20
2018-08-06T01:27:41.427Z,96.00
2018-08-06T01:30:11.500Z,96.30
2018-08-06T01:32:40.000Z,96.50
2018-08-06T01:35:09.670Z,96.60
2018-08-06T01:37:38.135Z,96.60
2018-08-06T01:40:09.904Z,96.70
2018-08-06T01:42:38.250Z,96.80
2018-08-06T01:45:07.302Z,96.80
2018-08-06T01:47:36.259Z,96.80
2018-08-06T01:50:05.546Z,96.70
2018-08-06T01:52:33.979Z,96.60
2018-08-06T01:55:02.358Z,96.90
2018-08-06T01:57:30.705Z,96.90
2018-08-06T01:59:59.093Z,96.80
2018-08-06T02:02:27.453Z,96.90
2018-08-06T02:04:55.881Z,97.10
2018-08-06T02:07:24.333Z,97.20
2018-08-06T02:09:53.044Z,97.10
2018-08-06T02:12:21.774Z,97.20
2018-08-06T02:14:50.166Z,97.50
2018-08-06T02:17:18.609Z,97.70
2018-08-06T02:19:47.033Z,97.80
2018-08-06T02:22:15.407Z,97.90
2018-08-06T02:24:43.816Z,97.90
2018-08-06T02:27:12.404Z,98.10
2018-08-06T02:29:40.897Z,98.20
2018-08-06T02:32:09.401Z,98.30
2018-08-06T02:34:37.843Z,98.30
2018-08-06T02:37:06.295Z,98.30
2018-08-06T02:39:34.744Z,99.30
2018-08-06T02:42:03.123Z,98.30
2018-08-06T02:44:31.591Z,99.00
2018-08-06T02:47:00.063Z,98.60
2018-08-06T02:49:28.590Z,99.10
2018-08-06T02:51:57.044Z,99.00
2018-08-06T02:54:25.474Z,99.00
2018-08-06T02:56:53.954Z,99.10
2018-08-06T02:59:22.323Z,99.10
2018-08-06T03:01:50.695Z,99.10
2018-08-06T03:04:19.228Z,99.00
2018-08-06T03:06:47.660Z,99.40
2018-08-06T03:09:16.039Z,99.40
2018-08-06T03:11:44.596Z,99.40
2018-08-06T03:14:13.040Z,99.30
2018-08-06T03:16:41.464Z,99.50
2018-08-06T03:19:09.859Z,99.90
2018-08-06T03:21:38.249Z,99.70
2018-08-06T03:24:06.645Z,99.80
2018-08-06T03:26:35.071Z,99.70
2018-08-06T03:29:03.480Z,99.80
2018-08-06T03:31:31.894Z,99.60
2018-08-06T03:34:00.268Z,99.70
2018-08-06T03:36:28.649Z,99.70
2018-08-06T03:38:57.172Z,99.50
2018-08-06T03:41:25.697Z,99.40
2018-08-06T03:43:54.145Z,99.20
2018-08-06T03:46:22.550Z,99.40
2018-08-06T03:48:51.033Z,99.50
2018-08-06T03:51:19.485Z,99.40
2018-08-06T03:53:47.922Z,99.50
2018-08-06T03:56:19.670Z,99.50
2018-08-06T03:58:48.906Z,99.50
2018-08-06T04:01:17.439Z,99.80
2018-08-06T04:03:46.268Z,99.70
2018-08-06T04:06:14.989Z,99.90
2018-08-06T04:08:43.352Z,99.90
2018-08-06T04:11:11.909Z,99.70
2018-08-06T04:13:40.237Z,99.60
2018-08-06T04:16:08.710Z,99.80
2018-08-06T04:18:37.076Z,99.80
2018-08-06T04:21:05.447Z,99.70
2018-08-06T04:23:33.868Z,99.90
2018-08-06T04:26:02.300Z,99.90
2018-08-06T04:28:30.768Z,99.90
2018-08-06T04:30:59.199Z,99.80
2018-08-06T04:33:27.521Z,99.90
2018-08-06T04:35:55.987Z,99.90
2018-08-06T04:38:24.431Z,99.90
2018-08-06T04:40:52.871Z,99.90
2018-08-06T04:43:21.378Z,99.90
2018-08-06T04:45:49.801Z,99.90
2018-08-06T04:48:18.144Z,99.90
2018-08-06T04:50:46.653Z,99.90
2018-08-06T04:53:15.170Z,99.90
2018-08-06T04:55:43.556Z,99.90
2018-08-06T04:58:11.893Z,99.90
2018-08-06T05:00:40.339Z,99.90
2018-08-06T05:03:08.755Z,99.90
2018-08-06T05:05:37.147Z,99.90
2018-08-06T05:08:05.530Z,99.90
2018-08-06T05:10:34.029Z,99.90
2018-08-06T05:13:02.407Z,99.90
2018-08-06T05:15:30.784Z,99.90
2018-08-06T05:17:59.101Z,99.90
2018-08-06T05:20:27.532Z,99.80
2018-08-06T05:22:55.953Z,99.80
2018-08-06T05:25:24.363Z,99.90
2018-08-06T05:27:52.751Z,99.90
2018-08-06T05:30:21.210Z,99.30
2018-08-06T05:32:49.741Z,99.50
2018-08-06T05:35:18.288Z,99.90
2018-08-06T05:37:46.651Z,99.70
2018-08-06T05:40:15.131Z,99.40
2018-08-06T05:42:43.528Z,99.20
2018-08-06T05:45:12.056Z,98.50
2018-08-06T05:47:40.522Z,98.90
2018-08-06T05:50:12.086Z,98.30
2018-08-06T05:52:40.601Z,98.30
2018-08-06T05:55:09.820Z,98.00
2018-08-06T05:57:38.646Z,98.00
2018-08-06T06:00:11.661Z,98.10
2018-08-06T06:02:40.225Z,97.90
2018-08-06T06:05:09.187Z,97.90
2018-08-06T06:07:37.584Z,97.40
2018-08-06T06:10:06.998Z,97.60
2018-08-06T06:12:36.247Z,97.00
2018-08-06T06:15:08.718Z,96.00
2018-08-06T06:17:37.157Z,94.70
2018-08-06T06:20:06.914Z,93.00
2018-08-06T06:22:35.497Z,91.90
2018-08-06T06:25:04.941Z,91.00
2018-08-06T06:27:33.348Z,90.00
2018-08-06T06:30:01.764Z,87.10
2018-08-06T06:32:30.237Z,86.80
2018-08-06T06:34:58.791Z,85.40
2018-08-06T06:37:27.222Z,85.90
2018-08-06T06:39:55.792Z,85.40
2018-08-06T06:42:24.181Z,86.10
2018-08-06T06:44:52.528Z,87.50
2018-08-06T06:47:20.880Z,89.20
2018-08-06T06:49:49.328Z,90.00
2018-08-06T06:52:17.801Z,90.80
2018-08-06T06:54:46.143Z,91.00
2018-08-06T06:57:15.440Z,92.10
2018-08-06T06:59:44.091Z,92.30
2018-08-06T07:02:12.718Z,91.50
2018-08-06T07:04:41.361Z,91.00
2018-08-06T07:07:09.749Z,90.70
2018-08-06T07:09:38.434Z,90.50
2018-08-06T07:12:06.831Z,90.80
2018-08-06T07:14:35.188Z,89.80
2018-08-06T07:17:03.670Z,88.60
2018-08-06T07:19:32.026Z,88.20
2018-08-06T07:22:00.425Z,87.70
2018-08-06T07:24:28.944Z,88.70
2018-08-06T07:26:57.341Z,86.80
2018-08-06T07:29:25.782Z,86.80
2018-08-06T07:31:54.236Z,87.00
2018-08-06T07:34:22.733Z,87.60
2018-08-06T07:36:51.245Z,89.50
2018-08-06T07:39:19.732Z,88.50
2018-08-06T07:41:48.260Z,88.10
2018-08-06T07:44:16.687Z,89.00
2018-08-06T07:46:45.247Z,88.90
2018-08-06T07:49:13.588Z,88.30
2018-08-06T07:51:42.073Z,87.80
2018-08-06T07:54:10.552Z,87.50
2018-08-06T07:56:38.994Z,86.60
2018-08-06T07:59:07.728Z,86.80
2018-08-06T08:01:36.215Z,86.50
2018-08-06T08:04:04.669Z,85.40
2018-08-06T08:06:34.073Z,85.10
2018-08-06T08:09:02.687Z,85.50
2018-08-06T08:11:31.136Z,84.90
2018-08-06T08:13:59.824Z,83.80
2018-08-06T08:16:28.273Z,84.80
2018-08-06T08:21:24.885Z,86.30
2018-08-06T08:23:53.224Z,86.20
2018-08-06T08:26:21.720Z,83.00
2018-08-06T08:28:50.235Z,84.80
2018-08-06T08:31:18.603Z,83.10
2018-08-06T08:33:47.052Z,84.50
2018-08-06T08:36:15.475Z,83.30
2018-08-06T08:38:43.842Z,82.70
2018-08-06T08:41:12.202Z,83.90
2018-08-06T08:43:40.705Z,82.30
2018-08-06T08:46:09.146Z,84.00
2018-08-06T08:48:37.546Z,83.20
2018-08-06T08:51:06.366Z,83.90
2018-08-06T08:53:34.839Z,83.10
2018-08-06T08:56:03.349Z,82.50
2018-08-06T08:58:31.930Z,81.70
2018-08-06T09:01:00.405Z,82.70
2018-08-06T09:03:28.801Z,81.50
2018-08-06T09:05:57.187Z,82.30
2018-08-06T09:08:25.585Z,81.90
2018-08-06T09:10:54.037Z,81.10
2018-08-06T09:13:22.557Z,84.20
2018-08-06T09:15:50.982Z,80.50
2018-08-06T09:18:19.430Z,80.60
2018-08-06T09:20:47.945Z,80.80
2018-08-06T09:23:16.336Z,82.20
2018-08-06T09:25:44.779Z,82.00
2018-08-06T09:28:13.316Z,82.30
2018-08-06T09:30:41.749Z,79.90
2018-08-06T09:33:10.146Z,79.50
2018-08-06T09:35:38.523Z,79.00
2018-08-06T09:38:06.980Z,80.30
2018-08-06T09:40:35.623Z,79.20
2018-08-06T09:43:03.994Z,78.00
2018-08-06T09:45:32.451Z,78.70
2018-08-06T09:48:00.820Z,75.70
2018-08-06T09:50:29.228Z,76.60
2018-08-06T09:52:57.578Z,76.10
2018-08-06T09:55:27.608Z,76.70
2018-08-06T09:57:56.059Z,73.10
2018-08-06T10:00:29.839Z,72.10
2018-08-06T10:02:59.687Z,75.80
2018-08-06T10:05:28.721Z,76.70
2018-08-06T10:07:57.170Z,71.50
2018-08-06T10:10:25.595Z,72.00
2018-08-06T10:12:54.091Z,71.00
2018-08-06T10:15:22.859Z,71.40
2018-08-06T10:17:52.793Z,72.70
2018-08-06T10:20:23.403Z,72.50
2018-08-06T10:22:51.858Z,72.30
2018-08-06T10:25:20.458Z,72.30
2018-08-06T10:27:49.058Z,70.70
2018-08-06T10:30:19.829Z,72.50
2018-08-06T10:32:48.278Z,71.90
2018-08-06T10:35:18.019Z,71.20
2018-08-06T10:37:46.474Z,71.60
2018-08-06T10:40:17.579Z,72.40
2018-08-06T10:42:46.438Z,73.20
2018-08-06T10:45:16.330Z,72.50
2018-08-06T10:47:44.741Z,71.50
2018-08-06T10:50:13.255Z,71.90
2018-08-06T10:52:41.759Z,71.10
2018-08-06T10:55:10.758Z,71.90
2018-08-06T10:57:40.126Z,70.60
2018-08-06T11:00:17.186Z,69.40
2018-08-06T11:02:45.886Z,70.80
2018-08-06T11:05:15.312Z,71.10
2018-08-06T11:07:43.751Z,70.30
2018-08-06T11:10:15.640Z,70.20
2018-08-06T11:12:44.095Z,69.80
2018-08-06T11:15:15.997Z,68.90
2018-08-06T11:17:44.440Z,69.90
2018-08-06T11:20:14.069Z,70.30
2018-08-06T11:22:42.529Z,69.30
2018-08-06T11:25:13.377Z,69.80
2018-08-06T11:27:42.024Z,71.30
2018-08-06T11:30:13.566Z,70.70
2018-08-06T11:32:42.053Z,71.20
2018-08-06T11:35:11.193Z,71.00
2018-08-06T11:37:39.860Z,70.20
2018-08-06T11:40:09.951Z,70.10
2018-08-06T11:42:39.395Z,70.00
2018-08-06T11:45:09.596Z,71.20
2018-08-06T11:47:37.969Z,70.80
2018-08-06T11:50:06.972Z,69.70
2018-08-06T11:52:35.378Z,70.50
2018-08-06T11:55:04.183Z,71.10
2018-08-06T11:57:32.610Z,70.80
2018-08-06T12:00:01.463Z,71.70
2018-08-06T12:02:29.895Z,69.00
2018-08-06T12:04:58.359Z,69.40
2018-08-06T12:07:26.827Z,68.70
2018-08-06T12:09:55.263Z,68.70
2018-08-06T12:12:23.727Z,68.10
2018-08-06T12:14:52.122Z,69.10
2018-08-06T12:17:20.467Z,66.00
2018-08-06T12:19:48.949Z,68.10
2018-08-06T12:22:17.345Z,68.70
2018-08-06T12:24:45.625Z,68.70
2018-08-06T12:27:14.105Z,68.90
2018-08-06T12:29:42.576Z,69.10
2018-08-06T12:32:10.935Z,69.40
2018-08-06T12:34:39.335Z,67.90
2018-08-06T12:37:08.561Z,69.50
2018-08-06T12:39:37.007Z,69.30
2018-08-06T12:42:05.523Z,69.80
2018-08-06T12:44:33.977Z,71.00
2018-08-06T12:47:02.411Z,70.40
2018-08-06T12:49:30.838Z,69.50
2018-08-06T12:51:59.251Z,70.10
2018-08-06T12:56:55.818Z,69.70
2018-08-06T12:59:24.202Z,70.40
2018-08-06T13:01:52.587Z,69.20
2018-08-06T13:04:21.057Z,69.50
2018-08-06T13:06:49.435Z,68.80
2018-08-06T13:09:17.822Z,68.70
2018-08-06T13:11:46.265Z,69.70
2018-08-06T13:14:14.649Z,68.30
2018-08-06T13:16:43.075Z,69.30
2018-08-06T13:19:11.399Z,69.30
2018-08-06T13:21:39.766Z,69.30
2018-08-06T13:24:08.182Z,68.80
2018-08-06T13:26:36.561Z,68.50
2018-08-06T13:29:05.338Z,68.60
2018-08-06T13:31:33.839Z,69.60
2018-08-06T13:34:02.300Z,68.00
2018-08-06T13:36:30.749Z,68.30
2018-08-06T13:38:59.105Z,69.10
2018-08-06T13:41:27.524Z,69.00
2018-08-06T13:43:57.170Z,68.90
2018-08-06T13:46:26.216Z,68.60
2018-08-06T13:48:54.672Z,68.20
2018-08-06T13:51:23.081Z,68.90
2018-08-06T13:53:51.449Z,69.40
2018-08-06T13:56:19.847Z,68.70
2018-08-06T13:58:48.284Z,69.00
2018-08-06T14:01:16.689Z,68.60
2018-08-06T14:03:45.054Z,68.10
2018-08-06T14:06:13.399Z,68.70
2018-08-06T14:08:41.779Z,67.80
2018-08-06T14:11:10.240Z,68.40
2018-08-06T14:13:38.632Z,67.30
2018-08-06T14:16:07.340Z,66.70
2018-08-06T14:18:35.751Z,67.00
2018-08-06T14:21:04.285Z,67.60
2018-08-06T14:23:32.636Z,67.90
2018-08-06T14:26:01.089Z,66.90
2018-08-06T14:28:29.552Z,67.40
2018-08-06T14:31:00.308Z,67.20
2018-08-06T14:33:28.793Z,66.50
2018-08-06T14:35:57.275Z,65.80
2018-08-06T14:38:25.723Z,66.50
2018-08-06T14:40:54.217Z,66.20
2018-08-06T14:43:22.587Z,66.30
2018-08-06T14:45:50.922Z,67.30
2018-08-06T14:48:19.336Z,66.10
2018-08-06T14:50:47.782Z,66.50
2018-08-06T14:53:16.218Z,67.30
2018-08-06T14:55:44.522Z,66.80
2018-08-06T14:58:12.913Z,67.40
2018-08-06T15:00:41.716Z,66.90
2018-08-06T15:03:10.111Z,66.20
2018-08-06T15:05:39.168Z,67.20
2018-08-06T15:08:07.510Z,65.80
2018-08-06T15:10:36.003Z,66.40
2018-08-06T15:13:05.937Z,64.80
2018-08-06T15:15:34.426Z,65.40
2018-08-06T15:18:02.929Z,65.40
2018-08-06T15:20:31.390Z,64.50
2018-08-06T15:22:59.794Z,64.60
2018-08-06T15:25:28.326Z,65.30
2018-08-06T15:27:56.840Z,65.90
2018-08-06T15:30:32.045Z,66.00
2018-08-06T15:33:00.386Z,65.60
2018-08-06T15:35:28.756Z,64.90
2018-08-06T15:37:57.179Z,64.80
2018-08-06T15:40:25.579Z,64.60
2018-08-06T15:42:53.919Z,64.90
2018-08-06T15:45:22.401Z,64.70
2018-08-06T15:47:50.771Z,64.70
2018-08-06T15:50:20.995Z,63.90
2018-08-06T15:52:49.539Z,64.40
2018-08-06T15:55:17.938Z,63.40
2018-08-06T15:57:46.397Z,64.50
2018-08-06T16:00:17.713Z,64.60
2018-08-06T16:02:46.511Z,64.00
2018-08-06T16:05:15.165Z,63.80
2018-08-06T16:07:43.521Z,62.90
2018-08-06T16:10:12.912Z,63.30
2018-08-06T16:12:41.826Z,63.10
2018-08-06T16:15:11.953Z,64.10
2018-08-06T16:17:41.273Z,62.30
2018-08-06T16:20:12.033Z,61.90
2018-08-06T16:22:41.013Z,62.10
2018-08-06T16:25:10.515Z,62.70
2018-08-06T16:27:38.960Z,63.10
2018-08-06T16:30:10.626Z,63.70
2018-08-06T16:32:39.055Z,62.90
2018-08-06T16:35:07.586Z,63.00
2018-08-06T16:37:36.059Z,63.50
2018-08-06T16:40:04.964Z,61.80
2018-08-06T16:42:33.331Z,62.60
2018-08-06T16:45:01.832Z,62.90
2018-08-06T16:47:30.254Z,61.00
2018-08-06T16:49:58.691Z,60.60
2018-08-06T16:52:27.099Z,61.40
2018-08-06T16:54:55.548Z,61.40
2018-08-06T16:57:24.011Z,61.00
2018-08-06T16:59:52.434Z,61.70
2018-08-06T17:02:20.855Z,61.00
2018-08-06T17:04:49.326Z,61.30
2018-08-06T17:07:17.908Z,61.30
2018-08-06T17:09:46.362Z,61.90
2018-08-06T17:12:14.761Z,61.60
2018-08-06T17:14:43.086Z,61.50
2018-08-06T17:17:11.528Z,62.30
2018-08-06T17:19:40.191Z,61.90
2018-08-06T17:22:08.589Z,61.90
2018-08-06T17:24:37.073Z,61.00
2018-08-06T17:27:05.566Z,61.00
2018-08-06T17:29:33.970Z,61.30
2018-08-06T17:32:02.306Z,61.50
2018-08-06T17:34:30.734Z,61.40
2018-08-06T17:36:59.184Z,61.60
2018-08-06T17:39:27.565Z,61.40
2018-08-06T17:41:56.027Z,60.80
2018-08-06T17:44:24.396Z,61.60
2018-08-06T17:46:52.720Z,61.30
2018-08-06T17:49:21.171Z,63.60
2018-08-06T17:51:49.540Z,63.40
2018-08-06T17:54:17.944Z,63.20
2018-08-06T17:56:46.392Z,66.60
2018-08-06T17:59:14.815Z,62.60
2018-08-06T18:01:43.169Z,64.60
2018-08-06T18:04:11.603Z,63.70
2018-08-06T18:06:40.027Z,63.20
2018-08-06T18:09:10.561Z,64.00
2018-08-06T18:11:38.976Z,63.20
2018-08-06T18:14:07.408Z,63.70
2018-08-06T18:16:35.710Z,63.40
2018-08-06T18:19:04.108Z,64.50
2018-08-06T18:21:32.468Z,65.70
2018-08-06T18:24:00.893Z,63.80
2018-08-06T18:26:29.306Z,66.10
2018-08-06T18:28:57.789Z,64.60
2018-08-06T18:31:26.231Z,66.00
2018-08-06T18:33:54.672Z,65.10
2018-08-06T18:36:23.453Z,64.60
2018-08-06T18:38:51.869Z,64.80
2018-08-06T18:41:20.374Z,66.40
2018-08-06T18:43:48.881Z,65.90
2018-08-06T18:46:17.326Z,66.80
2018-08-06T18:48:45.671Z,67.40
2018-08-06T18:51:14.003Z,67.70
2018-08-06T18:53:42.523Z,67.00
2018-08-06T18:56:10.999Z,67.70
2018-08-06T18:58:39.415Z,68.90
2018-08-06T19:01:08.324Z,69.80
2018-08-06T19:03:36.762Z,68.40
2018-08-06T19:06:05.245Z,69.00
2018-08-06T19:08:33.619Z,69.50
2018-08-06T19:11:02.033Z,70.20
2018-08-06T19:13:35.828Z,70.50
2018-08-06T19:16:04.310Z,70.50
2018-08-06T19:18:38.205Z,70.30
2018-08-06T19:21:06.846Z,71.30
2018-08-06T19:23:35.242Z,71.00
2018-08-06T19:26:03.710Z,68.70
2018-08-06T19:28:32.186Z,69.60
2018-08-06T19:31:05.886Z,70.70
2018-08-06T19:33:34.292Z,69.80
2018-08-06T19:36:02.762Z,71.50
2018-08-06T19:38:31.182Z,72.00
2018-08-06T19:40:59.638Z,72.70
2018-08-06T19:43:33.404Z,72.60
2018-08-06T19:46:02.195Z,72.50
2018-08-06T19:48:30.663Z,73.10
2018-08-06T19:50:59.111Z,74.00
2018-08-06T19:53:27.591Z,74.20
2018-08-06T19:56:01.475Z,74.90
2018-08-06T19:58:29.871Z,75.60
2018-08-06T20:00:58.367Z,75.00
2018-08-06T20:03:26.982Z,75.20
2018-08-06T20:05:55.528Z,75.80
2018-08-06T20:08:23.871Z,76.30
2018-08-06T20:10:52.384Z,76.60
2018-08-06T20:13:20.803Z,76.50
2018-08-06T20:15:49.361Z,76.60
2018-08-06T20:18:17.745Z,76.90
2018-08-06T20:20:46.080Z,77.40
2018-08-06T20:23:14.500Z,77.30
2018-08-06T20:25:42.829Z,77.80
2018-08-06T20:28:11.209Z,77.80
2018-08-06T20:30:39.635Z,77.80
2018-08-06T20:33:08.056Z,76.40
2018-08-06T20:35:36.532Z,77.20
2018-08-06T20:38:05.425Z,77.80
2018-08-06T20:40:33.835Z,77.90
2018-08-06T20:43:02.246Z,78.00
2018-08-06T20:45:30.683Z,78.10
2018-08-06T20:47:59.114Z,78.60
2018-08-06T20:50:27.692Z,79.30
2018-08-06T20:52:56.205Z,79.30
2018-08-06T20:55:24.616Z,78.10
2018-08-06T20:57:53.201Z,79.50
2018-08-06T21:00:25.572Z,78.70
2018-08-06T21:02:54.305Z,80.30
2018-08-06T21:05:22.875Z,78.10
2018-08-06T21:07:51.266Z,78.20
2018-08-06T21:10:20.217Z,79.20
2018-08-06T21:12:49.166Z,79.50
2018-08-06T21:15:17.661Z,79.70
2018-08-06T21:17:46.350Z,78.80
2018-08-06T21:20:17.498Z,78.80
2018-08-06T21:22:47.078Z,79.30
2018-08-06T21:25:16.071Z,78.80
2018-08-06T21:27:45.563Z,79.90
2018-08-06T21:30:15.850Z,79.50
2018-08-06T21:32:47.081Z,80.20
2018-08-06T21:35:16.149Z,80.40
2018-08-06T21:37:44.973Z,80.20
2018-08-06T21:40:13.418Z,79.90
2018-08-06T21:42:41.805Z,79.00
2018-08-06T21:45:10.153Z,77.90
2018-08-06T21:47:38.554Z,79.10
2018-08-06T21:50:07.715Z,80.00
2018-08-06T21:52:36.165Z,79.80
2018-08-06T21:55:05.335Z,79.90
2018-08-06T21:57:33.745Z,79.60
2018-08-06T22:00:02.102Z,79.60
2018-08-06T22:02:30.633Z,79.10
2018-08-06T22:04:59.038Z,78.90
2018-08-06T22:07:27.519Z,78.70
2018-08-06T22:09:56.001Z,78.00
2018-08-06T22:12:24.431Z,79.40
2018-08-06T22:14:52.918Z,78.80
2018-08-06T22:17:21.313Z,79.30
2018-08-06T22:19:49.702Z,80.10
2018-08-06T22:22:18.148Z,80.60
2018-08-06T22:24:46.636Z,80.40
2018-08-06T22:27:15.029Z,79.20
2018-08-06T22:29:43.461Z,79.20
2018-08-06T22:32:11.853Z,78.50
2018-08-06T22:34:40.223Z,79.00
2018-08-06T22:37:08.600Z,79.20
2018-08-06T22:39:37.056Z,79.30
2018-08-06T22:42:05.496Z,78.90
2018-08-06T22:44:33.895Z,79.90
2018-08-06T22:47:02.306Z,79.30
2018-08-06T22:49:30.691Z,79.80
2018-08-06T22:51:59.125Z,79.30
2018-08-06T22:54:27.501Z,80.10
2018-08-06T22:56:55.960Z,80.70
2018-08-06T22:59:24.584Z,81.00
2018-08-06T23:01:53.071Z,81.90
2018-08-06T23:04:21.441Z,80.20
2018-08-06T23:06:50.043Z,79.20
2018-08-06T23:09:18.562Z,79.80
2018-08-06T23:11:46.990Z,80.60
2018-08-06T23:14:15.371Z,81.10
2018-08-06T23:16:43.833Z,80.70
2018-08-06T23:19:12.251Z,81.40
2018-08-06T23:21:40.671Z,81.80
2018-08-06T23:24:09.263Z,82.00
2018-08-06T23:26:37.591Z,82.20
2018-08-06T23:29:05.943Z,82.50
2018-08-06T23:31:34.358Z,82.70
2018-08-06T23:34:02.814Z,80.90
2018-08-06T23:36:31.194Z,82.20
2018-08-06T23:38:59.638Z,81.70
2018-08-06T23:41:27.989Z,81.60
2018-08-06T23:43:56.376Z,82.50
2018-08-06T23:46:24.773Z,82.40
2018-08-06T23:48:53.178Z,82.40
2018-08-06T23:51:21.593Z,83.00
2018-08-06T23:53:50.367Z,83.90
2018-08-06T23:56:18.787Z,83.00
2018-08-06T23:58:47.220Z,83.10
